Time;durP1;ratioP1;P1;durP2;ratioP2;P2;SDS_P1;SDS_P2;PMS_P1;PMS_P2;Temp;Humidity;BMP_temperature;BMP_pressure;BME280_temperature;BME280_humidity;BME280_pressure;Samples;Min_cycle;Max_cycle;Signal;HPM_P1;HPM_P2
2022/11/11 00:00:58;;;;;;;;;;;13.80;73.30;;;;;;4956649;29;19977;-86
2022/11/11 00:03:43;;;;;;;;;;;13.80;73.30;;;;;;4957848;29;19929;-84
2022/11/11 00:06:27;;;;;;;;;;;13.80;73.30;;;;;;4956417;28;19922;-84
2022/11/11 00:09:11;;;;;;;;;;;13.80;73.30;;;;;;4956885;29;19921;-84
2022/11/11 00:11:55;;;;;;;;;;;13.80;73.30;;;;;;4957450;29;20303;-84
2022/11/11 00:14:39;;;;;;;;;;;13.80;73.30;;;;;;4943850;29;19925;-84
2022/11/11 00:26:33;;;;;;;;;;;13.70;73.30;;;;;;4957600;29;20362;-84
2022/11/11 00:29:17;;;;;;;;;;;13.70;73.30;;;;;;4956806;29;20425;-84
2022/11/11 00:38:08;;;;;;;;;;;13.70;73.40;;;;;;4957811;29;19921;-85
2022/11/11 00:40:52;;;;;;;;;;;13.60;73.30;;;;;;4957595;29;19924;-84
2022/11/11 00:43:37;;;;;;;;;;;13.60;73.40;;;;;;4955923;29;20031;-84
2022/11/11 00:52:27;;;;;;;;;;;13.60;73.40;;;;;;4957695;29;19938;-85
2022/11/11 00:55:12;;;;;;;;;;;13.60;73.40;;;;;;4957380;29;20460;-84
2022/11/11 00:57:56;;;;;;;;;;;13.60;73.40;;;;;;4956859;29;19961;-84
2022/11/11 01:00:41;;;;;;;;;;;13.60;73.40;;;;;;4956413;29;19942;-87
2022/11/11 01:03:26;;;;;;;;;;;13.60;73.40;;;;;;4957448;29;19926;-84
2022/11/11 01:06:11;;;;;;;;;;;13.50;73.40;;;;;;4955963;29;20323;-85
2022/11/11 01:08:55;;;;;;;;;;;13.60;73.40;;;;;;4942233;29;19929;-84
2022/11/11 01:11:40;;;;;;;;;;;13.50;73.40;;;;;;4957091;29;19926;-84
2022/11/11 01:14:24;;;;;;;;;;;13.60;73.40;;;;;;4955499;29;20291;-89
2022/11/11 01:17:08;;;;;;;;;;;13.50;73.40;;;;;;4955293;28;19940;-84
2022/11/11 01:19:52;;;;;;;;;;;13.50;73.40;;;;;;4956414;29;20034;-84
2022/11/11 01:22:36;;;;;;;;;;;13.50;73.40;;;;;;4941935;29;19970;-84
2022/11/11 01:25:21;;;;;;;;;;;13.50;73.40;;;;;;4956409;29;20402;-87
2022/11/11 01:28:06;;;;;;;;;;;13.50;73.40;;;;;;4955326;29;19924;-84
2022/11/11 01:30:53;;;;;;;;;;;13.50;73.40;;;;;;4955878;29;19964;-83
2022/11/11 01:33:38;;;;;;;;;;;13.50;73.50;;;;;;4955776;29;19922;-83
2022/11/11 01:36:23;;;;;;;;;;;13.50;73.50;;;;;;4955700;29;19965;-88
2022/11/11 01:39:08;;;;;;;;;;;13.50;73.50;;;;;;4956708;29;19966;-82
2022/11/11 01:41:52;;;;;;;;;;;13.50;73.50;;;;;;4955496;29;20014;-84
2022/11/11 01:44:46;;;;;;;;;;;13.50;73.50;;;;;;4941242;29;19934;-84
2022/11/11 01:49:17;;;;;;;;;;;13.50;73.50;;;;;;4955871;29;19921;-83
2022/11/11 01:50:34;;;;;;;;;;;13.50;73.50;;;;;;4956761;29;20009;-84
2022/11/11 01:53:18;;;;;;;;;;;13.50;73.60;;;;;;4955223;29;20344;-84
2022/11/11 01:56:03;;;;;;;;;;;13.50;73.60;;;;;;4955855;29;20359;-83
2022/11/11 01:58:48;;;;;;;;;;;13.50;73.60;;;;;;4955483;29;19925;-83
2022/11/11 02:01:33;;;;;;;;;;;13.50;73.60;;;;;;4956326;29;19925;-85
2022/11/11 02:07:21;;;;;;;;;;;13.50;73.60;;;;;;4956408;29;19934;-84
2022/11/11 02:10:06;;;;;;;;;;;13.50;73.60;;;;;;4941467;29;19926;-83
2022/11/11 02:15:53;;;;;;;;;;;13.50;73.60;;;;;;4963590;29;19973;-84
2022/11/11 02:18:37;;;;;;;;;;;13.50;73.60;;;;;;4969110;29;19926;-82
2022/11/11 02:21:38;;;;;;;;;;;13.50;73.60;;;;;;4960797;29;19925;-83
2022/11/11 02:24:23;;;;;;;;;;;13.50;73.60;;;;;;4956043;29;19969;-83
2022/11/11 02:27:10;;;;;;;;;;;13.50;73.60;;;;;;4955910;29;19921;-82
2022/11/11 02:29:55;;;;;;;;;;;13.50;73.60;;;;;;4960531;29;19981;-84
2022/11/11 02:32:40;;;;;;;;;;;13.50;73.60;;;;;;4960209;29;19926;-85
2022/11/11 02:35:29;;;;;;;;;;;13.50;74.20;;;;;;4945960;29;19925;-83
2022/11/11 02:38:13;;;;;;;;;;;13.50;73.60;;;;;;4959701;29;20025;-84
2022/11/11 02:44:01;;;;;;;;;;;13.50;73.60;;;;;;4958737;29;19996;-85
2022/11/11 02:46:45;;;;;;;;;;;13.50;73.60;;;;;;4958874;29;19926;-82
2022/11/11 02:49:29;;;;;;;;;;;13.50;73.60;;;;;;4959289;29;19984;-85
2022/11/11 02:52:13;;;;;;;;;;;13.50;73.60;;;;;;4959351;29;19921;-83
2022/11/11 02:54:57;;;;;;;;;;;13.50;73.60;;;;;;4959715;29;19946;-84
2022/11/11 02:57:42;;;;;;;;;;;13.50;73.60;;;;;;4960240;29;20316;-83
2022/11/11 03:00:26;;;;;;;;;;;13.60;73.60;;;;;;4958208;29;20440;-83
2022/11/11 03:03:10;;;;;;;;;;;13.60;73.60;;;;;;4957490;29;19977;-86
2022/11/11 03:05:54;;;;;;;;;;;13.50;73.60;;;;;;4958842;29;20378;-87
2022/11/11 03:08:39;;;;;;;;;;;13.50;73.60;;;;;;4959297;29;19942;-83
2022/11/11 03:11:29;;;;;;;;;;;13.60;73.60;;;;;;4958391;29;20057;-83
2022/11/11 03:14:13;;;;;;;;;;;13.50;73.60;;;;;;4959166;29;20347;-84
2022/11/11 03:23:05;;;;;;;;;;;13.50;73.60;;;;;;4958886;29;20446;-79
2022/11/11 03:25:50;;;;;;;;;;;13.60;73.70;;;;;;4957938;29;20427;-82
2022/11/11 03:28:34;;;;;;;;;;;13.60;73.70;;;;;;4957422;29;20081;-81
2022/11/11 03:31:18;;;;;;;;;;;13.60;73.70;;;;;;4957720;29;19926;-80
2022/11/11 03:34:18;;;;;;;;;;;13.60;73.70;;;;;;4958702;29;19962;-81
2022/11/11 03:40:06;;;;;;;;;;;13.60;73.70;;;;;;4957762;28;19926;-81
2022/11/11 03:42:50;;;;;;;;;;;13.60;73.70;;;;;;4957704;29;19929;-81
2022/11/11 03:45:34;;;;;;;;;;;13.60;73.70;;;;;;4943549;29;19938;-81
2022/11/11 03:48:19;;;;;;;;;;;13.50;73.70;;;;;;4957515;29;20395;-81
2022/11/11 03:51:03;;;;;;;;;;;13.60;73.70;;;;;;4957013;29;19981;-81
2022/11/11 03:53:47;;;;;;;;;;;13.60;73.70;;;;;;4956931;29;19921;-80
2022/11/11 03:56:31;;;;;;;;;;;13.60;73.70;;;;;;4957358;29;19934;-81
2022/11/11 03:59:15;;;;;;;;;;;13.60;73.70;;;;;;4957702;29;20041;-81
2022/11/11 04:11:27;;;;;;;;;;;13.60;73.80;;;;;;4957868;29;19960;-81
2022/11/11 04:17:16;;;;;;;;;;;13.60;73.80;;;;;;4957628;29;19921;-81
2022/11/11 04:23:03;;;;;;;;;;;13.60;73.80;;;;;;4957272;29;20029;-80
2022/11/11 04:25:52;;;;;;;;;;;13.60;73.80;;;;;;4956856;29;19926;-81
2022/11/11 04:32:34;;;;;;;;;;;13.60;73.80;;;;;;4957255;29;19937;-80
2022/11/11 04:34:48;;;;;;;;;;;13.60;73.80;;;;;;4957827;28;19973;-81
2022/11/11 04:37:33;;;;;;;;;;;13.50;73.70;;;;;;4957609;29;19922;-81
2022/11/11 04:43:21;;;;;;;;;;;13.60;73.80;;;;;;4957424;29;19977;-81
2022/11/11 04:46:05;;;;;;;;;;;13.60;73.80;;;;;;4956290;29;20026;-82
2022/11/11 04:48:49;;;;;;;;;;;13.60;73.80;;;;;;4942961;29;19925;-81
2022/11/11 04:56:46;;;;;;;;;;;13.60;73.80;;;;;;4957216;29;19970;-82
2022/11/11 04:57:45;;;;;;;;;;;13.60;73.80;;;;;;4956669;29;19978;-81
2022/11/11 05:00:29;;;;;;;;;;;13.60;73.80;;;;;;4956627;29;19930;-79
2022/11/11 05:03:14;;;;;;;;;;;13.60;73.80;;;;;;4956226;29;19950;-82
2022/11/11 05:09:03;;;;;;;;;;;13.60;73.80;;;;;;4956456;29;20279;-81
2022/11/11 05:11:50;;;;;;;;;;;13.60;73.80;;;;;;4955875;29;19925;-81
2022/11/11 05:21:22;;;;;;;;;;;13.60;73.80;;;;;;4955304;29;20014;-81
2022/11/11 05:26:51;;;;;;;;;;;13.60;73.80;;;;;;4955756;29;19925;-81
2022/11/11 05:29:35;;;;;;;;;;;13.60;73.80;;;;;;4956758;29;19941;-80
2022/11/11 05:32:20;;;;;;;;;;;13.60;73.80;;;;;;4956552;29;19925;-80
2022/11/11 05:35:05;;;;;;;;;;;13.60;73.80;;;;;;4955509;29;19921;-82
2022/11/11 05:38:19;;;;;;;;;;;13.60;73.80;;;;;;4941648;29;20268;-80
2022/11/11 05:40:54;;;;;;;;;;;13.60;73.80;;;;;;4955710;29;19977;-80
2022/11/11 05:43:38;;;;;;;;;;;13.60;73.80;;;;;;4956212;29;20018;-79
2022/11/11 05:46:22;;;;;;;;;;;13.60;73.80;;;;;;4954743;29;20284;-81
2022/11/11 05:49:15;;;;;;;;;;;13.60;73.80;;;;;;4955551;29;19925;-80
2022/11/11 05:52:00;;;;;;;;;;;13.60;73.80;;;;;;4955088;29;20065;-80
2022/11/11 05:54:44;;;;;;;;;;;13.60;73.80;;;;;;4954988;29;19965;-80
2022/11/11 05:57:29;;;;;;;;;;;13.60;73.80;;;;;;4955721;29;19930;-80
2022/11/11 06:00:13;;;;;;;;;;;13.60;73.80;;;;;;4955361;29;20413;-81
2022/11/11 06:03:04;;;;;;;;;;;13.60;73.80;;;;;;4956520;28;19929;-80
2022/11/11 06:05:48;;;;;;;;;;;13.60;73.80;;;;;;4960097;29;19924;-80
2022/11/11 06:08:32;;;;;;;;;;;13.60;73.80;;;;;;4958453;29;19965;-79
2022/11/11 06:11:17;;;;;;;;;;;13.60;73.80;;;;;;4959007;29;20022;-77
2022/11/11 06:14:01;;;;;;;;;;;13.60;73.80;;;;;;4960010;29;19921;-80
2022/11/11 06:16:45;;;;;;;;;;;13.60;73.80;;;;;;4959687;29;19965;-80
2022/11/11 06:19:29;;;;;;;;;;;13.60;73.80;;;;;;4959023;29;19926;-83
2022/11/11 06:22:54;;;;;;;;;;;13.60;73.80;;;;;;4944096;29;19976;-80
2022/11/11 06:28:21;;;;;;;;;;;13.60;73.80;;;;;;4958765;29;20005;-81
2022/11/11 06:31:06;;;;;;;;;;;13.60;73.80;;;;;;4959053;29;19925;-81
2022/11/11 06:33:50;;;;;;;;;;;13.60;73.80;;;;;;4959191;29;20016;-81
2022/11/11 06:36:34;;;;;;;;;;;13.60;73.80;;;;;;4958209;29;19921;-81
2022/11/11 06:39:18;;;;;;;;;;;13.50;73.70;;;;;;4958391;29;19937;-80
2022/11/11 06:42:03;;;;;;;;;;;13.60;73.80;;;;;;4958368;29;19929;-81
2022/11/11 06:44:47;;;;;;;;;;;13.60;73.80;;;;;;4959231;29;20458;-81
2022/11/11 06:47:31;;;;;;;;;;;13.60;73.80;;;;;;4958603;29;19926;-81
2022/11/11 06:50:16;;;;;;;;;;;13.60;73.80;;;;;;4957879;29;19942;-81
2022/11/11 06:53:04;;;;;;;;;;;13.60;73.80;;;;;;4944409;29;19924;-81
2022/11/11 06:55:50;;;;;;;;;;;13.60;73.90;;;;;;4958685;29;19965;-80
2022/11/11 06:58:35;;;;;;;;;;;13.60;73.80;;;;;;4959371;29;20244;-80
2022/11/11 07:01:19;;;;;;;;;;;13.60;73.80;;;;;;4959104;29;19925;-81
2022/11/11 07:04:03;;;;;;;;;;;13.50;73.70;;;;;;4958718;29;19950;-81
2022/11/11 07:06:47;;;;;;;;;;;13.60;73.90;;;;;;4958135;29;19921;-80
2022/11/11 07:09:31;;;;;;;;;;;13.60;73.90;;;;;;4958995;29;19921;-80
2022/11/11 07:12:16;;;;;;;;;;;13.50;73.80;;;;;;4958647;29;19920;-80
2022/11/11 07:15:00;;;;;;;;;;;13.50;73.80;;;;;;4957623;28;19922;-80
2022/11/11 07:17:44;;;;;;;;;;;13.50;73.80;;;;;;4958468;29;19925;-80
2022/11/11 07:20:29;;;;;;;;;;;13.50;73.80;;;;;;4957862;29;20021;-81
2022/11/11 07:23:13;;;;;;;;;;;13.50;73.80;;;;;;4957310;29;19959;-80
2022/11/11 07:25:57;;;;;;;;;;;13.50;73.80;;;;;;4958744;29;19970;-80
2022/11/11 07:28:41;;;;;;;;;;;13.50;73.80;;;;;;4957718;29;20025;-81
2022/11/11 07:31:25;;;;;;;;;;;13.50;73.80;;;;;;4958653;29;19921;-80
2022/11/11 07:34:10;;;;;;;;;;;13.50;73.80;;;;;;4957711;29;19921;-82
2022/11/11 07:36:54;;;;;;;;;;;13.50;73.70;;;;;;4958493;29;20001;-81
2022/11/11 07:39:38;;;;;;;;;;;13.50;73.80;;;;;;4958152;29;19921;-80
2022/11/11 07:42:22;;;;;;;;;;;13.50;73.80;;;;;;4958077;29;19942;-79
2022/11/11 07:45:08;;;;;;;;;;;13.50;73.70;;;;;;4958458;29;19929;-80
2022/11/11 07:47:52;;;;;;;;;;;13.50;73.70;;;;;;4943822;29;20403;-80
2022/11/11 07:50:36;;;;;;;;;;;13.50;73.70;;;;;;4958205;29;20068;-81
2022/11/11 07:53:20;;;;;;;;;;;13.50;73.70;;;;;;4957067;29;19922;-80
2022/11/11 07:56:05;;;;;;;;;;;13.50;73.70;;;;;;4958097;29;19929;-82
2022/11/11 07:58:49;;;;;;;;;;;13.50;73.70;;;;;;4957780;29;20422;-81
2022/11/11 08:01:33;;;;;;;;;;;13.50;73.70;;;;;;4957160;29;19930;-83
2022/11/11 08:04:17;;;;;;;;;;;13.50;73.70;;;;;;4957945;29;20037;-82
2022/11/11 08:07:02;;;;;;;;;;;13.50;73.70;;;;;;4943500;29;19942;-81
2022/11/11 08:09:46;;;;;;;;;;;13.50;73.80;;;;;;4956262;29;19925;-80
2022/11/11 08:15:33;;;;;;;;;;;13.40;73.70;;;;;;4957464;29;19921;-80
2022/11/11 08:18:17;;;;;;;;;;;13.40;73.70;;;;;;4956041;29;19980;-80
2022/11/11 08:21:02;;;;;;;;;;;13.40;73.70;;;;;;4957444;29;20311;-80
2022/11/11 08:23:46;;;;;;;;;;;13.40;73.70;;;;;;4957770;29;19977;-81
2022/11/11 08:26:30;;;;;;;;;;;13.40;73.70;;;;;;4942308;29;20415;-81
2022/11/11 08:29:15;;;;;;;;;;;13.40;73.70;;;;;;4942757;29;19980;-80
2022/11/11 08:31:59;;;;;;;;;;;13.40;73.70;;;;;;4956794;29;19926;-81
2022/11/11 08:34:43;;;;;;;;;;;13.40;73.70;;;;;;4956339;29;20013;-79
2022/11/11 08:37:27;;;;;;;;;;;13.40;73.70;;;;;;4955955;29;19926;-80
2022/11/11 08:40:12;;;;;;;;;;;13.40;73.70;;;;;;4956572;29;19921;-81
2022/11/11 08:42:56;;;;;;;;;;;13.40;73.70;;;;;;4957161;29;19981;-80
2022/11/11 08:45:40;;;;;;;;;;;13.40;73.80;;;;;;4956543;29;20266;-81
2022/11/11 08:48:25;;;;;;;;;;;13.40;73.70;;;;;;4956513;29;20392;-81
2022/11/11 08:51:09;;;;;;;;;;;13.40;73.70;;;;;;4957303;29;19926;-81
2022/11/11 08:53:53;;;;;;;;;;;13.40;73.70;;;;;;4956331;29;19925;-79
2022/11/11 08:56:37;;;;;;;;;;;13.40;73.80;;;;;;4956905;29;19924;-80
2022/11/11 08:59:21;;;;;;;;;;;13.40;73.80;;;;;;4955713;29;19922;-80
2022/11/11 09:02:09;;;;;;;;;;;13.40;73.70;;;;;;4956003;29;20306;-80
2022/11/11 09:04:53;;;;;;;;;;;13.40;73.80;;;;;;4957120;29;19974;-80
2022/11/11 09:07:37;;;;;;;;;;;13.40;73.80;;;;;;4956023;29;19926;-79
2022/11/11 09:10:21;;;;;;;;;;;13.40;73.70;;;;;;4956445;29;20030;-79
2022/11/11 09:13:06;;;;;;;;;;;13.40;73.70;;;;;;4956392;29;20355;-80
2022/11/11 09:15:51;;;;;;;;;;;13.40;73.70;;;;;;4956848;29;20274;-80
2022/11/11 09:18:35;;;;;;;;;;;13.40;73.70;;;;;;4956875;29;19937;-80
2022/11/11 09:21:19;;;;;;;;;;;13.40;73.80;;;;;;4956096;29;19921;-79
2022/11/11 09:24:07;;;;;;;;;;;13.40;73.80;;;;;;4955888;29;20409;-81
2022/11/11 09:26:51;;;;;;;;;;;13.40;73.80;;;;;;4956741;29;19965;-81
2022/11/11 09:29:35;;;;;;;;;;;13.30;73.80;;;;;;4954887;29;19965;-80
2022/11/11 09:32:19;;;;;;;;;;;13.30;73.80;;;;;;4955579;29;19917;-81
2022/11/11 09:35:04;;;;;;;;;;;13.40;73.90;;;;;;4954827;29;19974;-80
2022/11/11 09:37:55;;;;;;;;;;;13.40;73.80;;;;;;4954068;29;19926;-81
2022/11/11 09:40:39;;;;;;;;;;;13.40;73.80;;;;;;4956296;29;19966;-80
2022/11/11 09:43:45;;;;;;;;;;;13.40;73.90;;;;;;4956163;29;19948;-81
2022/11/11 09:46:33;;;;;;;;;;;13.40;73.90;;;;;;4954885;29;19930;-81
2022/11/11 09:49:20;;;;;;;;;;;13.40;73.90;;;;;;4955363;29;19965;-80
2022/11/11 09:52:11;;;;;;;;;;;13.40;73.90;;;;;;4954845;29;19942;-81
2022/11/11 09:55:02;;;;;;;;;;;13.40;73.90;;;;;;4955397;29;20276;-80
2022/11/11 09:57:46;;;;;;;;;;;13.40;73.90;;;;;;4955079;29;19969;-80
2022/11/11 10:00:33;;;;;;;;;;;13.40;73.90;;;;;;4955321;29;19921;-80
2022/11/11 10:03:20;;;;;;;;;;;13.40;73.90;;;;;;4956223;29;19926;-80
2022/11/11 10:06:22;;;;;;;;;;;13.40;73.90;;;;;;4956294;29;20043;-80
2022/11/11 10:09:12;;;;;;;;;;;13.40;73.90;;;;;;4955255;29;19926;-80
2022/11/11 10:11:59;;;;;;;;;;;13.40;73.90;;;;;;4955142;29;19920;-80
2022/11/11 10:14:45;;;;;;;;;;;13.40;74.00;;;;;;4955687;29;19920;-84
2022/11/11 10:17:39;;;;;;;;;;;13.40;73.90;;;;;;4955837;29;19941;-84
2022/11/11 10:20:25;;;;;;;;;;;13.40;73.90;;;;;;4956907;29;20000;-85
2022/11/11 10:23:14;;;;;;;;;;;13.40;73.90;;;;;;4955576;29;20351;-85
2022/11/11 10:26:01;;;;;;;;;;;13.40;73.90;;;;;;4955943;29;19926;-85
2022/11/11 10:28:48;;;;;;;;;;;13.40;73.90;;;;;;4956675;29;19925;-84
2022/11/11 10:31:31;;;;;;;;;;;13.50;74.00;;;;;;4955882;29;20303;-83
2022/11/11 10:34:17;;;;;;;;;;;13.50;74.00;;;;;;4955301;29;19925;-83
2022/11/11 10:37:02;;;;;;;;;;;13.50;74.00;;;;;;4955649;29;19964;-83
2022/11/11 10:39:59;;;;;;;;;;;13.50;74.00;;;;;;4955196;29;19974;-82
2022/11/11 10:42:43;;;;;;;;;;;13.50;74.00;;;;;;4954738;29;19926;-83
2022/11/11 10:45:47;;;;;;;;;;;13.50;74.00;;;;;;4955457;29;19929;-83
2022/11/11 10:48:49;;;;;;;;;;;13.50;74.00;;;;;;4954871;28;19921;-80
2022/11/11 10:51:41;;;;;;;;;;;13.50;74.00;;;;;;4957769;28;21558;-81
2022/11/11 10:54:31;;;;;;;;;;;13.60;74.00;;;;;;4957920;29;20323;-82
2022/11/11 10:57:30;;;;;;;;;;;13.60;74.00;;;;;;4958300;29;19930;-81
2022/11/11 11:00:15;;;;;;;;;;;13.50;74.00;;;;;;4959037;29;19930;-80
2022/11/11 11:03:02;;;;;;;;;;;13.60;74.00;;;;;;4957520;29;19980;-82
2022/11/11 11:05:58;;;;;;;;;;;13.60;74.00;;;;;;4958056;29;19929;-80
2022/11/11 11:08:44;;;;;;;;;;;13.60;74.00;;;;;;4959384;29;20061;-82
2022/11/11 11:11:36;;;;;;;;;;;13.60;74.00;;;;;;4958178;29;19922;-82
2022/11/11 11:14:26;;;;;;;;;;;13.60;74.00;;;;;;4957838;29;19937;-81
2022/11/11 11:17:21;;;;;;;;;;;13.60;74.00;;;;;;4958184;29;19930;-80
2022/11/11 11:20:07;;;;;;;;;;;13.70;74.00;;;;;;4958150;29;20017;-81
2022/11/11 11:22:52;;;;;;;;;;;13.70;74.10;;;;;;4959010;29;20021;-82
2022/11/11 11:25:37;;;;;;;;;;;13.70;74.00;;;;;;4958025;29;19928;-83
2022/11/11 11:28:21;;;;;;;;;;;13.70;74.00;;;;;;4957868;29;19926;-82
2022/11/11 11:31:06;;;;;;;;;;;13.70;74.00;;;;;;4957938;29;19965;-84
2022/11/11 11:33:54;;;;;;;;;;;13.80;74.10;;;;;;4958285;29;19921;-79
2022/11/11 11:36:38;;;;;;;;;;;13.80;74.00;;;;;;4957666;29;19926;-81
2022/11/11 11:39:37;;;;;;;;;;;13.80;74.00;;;;;;4957455;29;20283;-82
2022/11/11 11:42:30;;;;;;;;;;;13.80;74.00;;;;;;4958492;29;20344;-81
2022/11/11 11:45:25;;;;;;;;;;;13.80;74.00;;;;;;4958729;29;19925;-82
2022/11/11 11:48:11;;;;;;;;;;;13.90;74.10;;;;;;4958861;29;19981;-82
2022/11/11 11:51:08;;;;;;;;;;;13.80;74.00;;;;;;4957251;29;19925;-82
2022/11/11 11:54:11;;;;;;;;;;;13.80;74.00;;;;;;4957871;29;19961;-81
2022/11/11 11:56:57;;;;;;;;;;;13.90;74.00;;;;;;4958346;29;20358;-82
2022/11/11 11:59:45;;;;;;;;;;;13.90;74.00;;;;;;4957758;29;19965;-82
2022/11/11 12:02:48;;;;;;;;;;;13.90;74.00;;;;;;4957011;29;19925;-82
2022/11/11 12:05:41;;;;;;;;;;;13.90;74.00;;;;;;4956582;29;19925;-80
2022/11/11 12:08:44;;;;;;;;;;;14.00;74.10;;;;;;4957524;29;20431;-82
2022/11/11 12:11:37;;;;;;;;;;;14.00;74.00;;;;;;4957748;29;19965;-82
2022/11/11 12:14:40;;;;;;;;;;;14.00;74.00;;;;;;4958065;29;19921;-82
2022/11/11 12:17:25;;;;;;;;;;;14.00;74.00;;;;;;4957754;29;20457;-83
2022/11/11 12:20:28;;;;;;;;;;;14.00;74.00;;;;;;4958402;29;20264;-82
2022/11/11 12:23:31;;;;;;;;;;;14.00;74.00;;;;;;4956745;29;20322;-82
2022/11/11 12:26:21;;;;;;;;;;;14.10;74.00;;;;;;4957769;29;20405;-82
2022/11/11 12:29:24;;;;;;;;;;;14.10;74.00;;;;;;4958138;29;19921;-82
2022/11/11 12:32:15;;;;;;;;;;;14.10;74.00;;;;;;4957931;29;19922;-82
2022/11/11 12:35:18;;;;;;;;;;;14.10;74.00;;;;;;4958074;29;20427;-82
2022/11/11 12:38:38;;;;;;;;;;;14.10;73.90;;;;;;4957607;29;19922;-81
2022/11/11 12:41:51;;;;;;;;;;;14.10;73.90;;;;;;4941641;29;19926;-82
2022/11/11 12:44:43;;;;;;;;;;;14.20;74.00;;;;;;4964297;28;19925;-81
2022/11/11 12:47:41;;;;;;;;;;;14.20;74.00;;;;;;4957161;29;19921;-81
2022/11/11 12:50:36;;;;;;;;;;;14.20;74.00;;;;;;4956591;29;20287;-81
2022/11/11 12:53:33;;;;;;;;;;;14.20;74.00;;;;;;4957374;29;20091;-81
2022/11/11 12:56:23;;;;;;;;;;;14.20;74.00;;;;;;4956408;29;19921;-83
2022/11/11 12:59:11;;;;;;;;;;;14.20;74.00;;;;;;4957327;29;19977;-82
2022/11/11 13:02:15;;;;;;;;;;;14.20;74.00;;;;;;4957285;29;20316;-81
2022/11/11 13:04:59;;;;;;;;;;;14.30;74.00;;;;;;4956406;29;20336;-82
2022/11/11 13:07:52;;;;;;;;;;;14.30;74.00;;;;;;4955909;29;20370;-82
2022/11/11 13:10:39;;;;;;;;;;;14.30;74.00;;;;;;4957149;29;20472;-82
2022/11/11 13:13:27;;;;;;;;;;;14.30;74.00;;;;;;4956500;28;20295;-82
2022/11/11 13:16:11;;;;;;;;;;;14.30;74.00;;;;;;4955664;29;19958;-82
2022/11/11 13:19:01;;;;;;;;;;;14.30;74.00;;;;;;4956999;29;19960;-82
2022/11/11 13:21:48;;;;;;;;;;;14.40;74.10;;;;;;4956844;29;20337;-82
2022/11/11 13:24:34;;;;;;;;;;;14.30;74.00;;;;;;4957059;29;19965;-82
2022/11/11 13:27:23;;;;;;;;;;;14.40;74.00;;;;;;4956104;29;19921;-82
2022/11/11 13:30:11;;;;;;;;;;;14.40;74.00;;;;;;4956576;29;20383;-80
2022/11/11 13:33:00;;;;;;;;;;;14.40;74.00;;;;;;4956451;29;19925;-81
2022/11/11 13:35:46;;;;;;;;;;;14.40;74.00;;;;;;4955344;29;19922;-82
2022/11/11 13:38:32;;;;;;;;;;;14.40;74.00;;;;;;4955307;29;19925;-81
2022/11/11 13:41:25;;;;;;;;;;;14.40;73.90;;;;;;4955729;29;20426;-82
2022/11/11 13:44:19;;;;;;;;;;;14.40;73.90;;;;;;4956041;29;20263;-81
2022/11/11 13:47:11;;;;;;;;;;;14.40;73.90;;;;;;4956628;29;20386;-81
2022/11/11 13:49:57;;;;;;;;;;;14.40;73.90;;;;;;4955644;29;20275;-80
2022/11/11 13:52:51;;;;;;;;;;;14.50;74.00;;;;;;4955923;29;20416;-81
2022/11/11 13:55:38;;;;;;;;;;;14.50;74.00;;;;;;4955885;29;19917;-81
2022/11/11 13:58:26;;;;;;;;;;;14.50;74.00;;;;;;4955602;29;20331;-80
2022/11/11 14:01:11;;;;;;;;;;;14.50;74.00;;;;;;4956212;29;19926;-81
2022/11/11 14:03:59;;;;;;;;;;;14.50;73.90;;;;;;4956124;29;19954;-81
2022/11/11 14:06:46;;;;;;;;;;;14.50;74.00;;;;;;4955069;29;20065;-80
2022/11/11 14:09:49;;;;;;;;;;;14.50;74.00;;;;;;4955481;29;20077;-81
2022/11/11 14:12:35;;;;;;;;;;;14.50;74.00;;;;;;4956377;29;19922;-81
2022/11/11 14:15:39;;;;;;;;;;;14.50;74.00;;;;;;4956341;29;19921;-81
2022/11/11 14:18:24;;;;;;;;;;;14.50;74.00;;;;;;4956093;29;20439;-81
2022/11/11 14:21:08;;;;;;;;;;;14.50;73.90;;;;;;4955297;29;19972;-81
2022/11/11 14:23:53;;;;;;;;;;;14.50;73.90;;;;;;4956799;28;19957;-81
2022/11/11 14:26:38;;;;;;;;;;;14.50;74.00;;;;;;4959012;29;19917;-82
2022/11/11 14:29:25;;;;;;;;;;;14.50;73.90;;;;;;4959043;29;19926;-81
2022/11/11 14:32:13;;;;;;;;;;;14.50;73.90;;;;;;4958417;29;19965;-80
2022/11/11 14:34:56;;;;;;;;;;;14.50;74.00;;;;;;4958552;29;19977;-81
2022/11/11 14:37:47;;;;;;;;;;;14.50;73.90;;;;;;4958496;29;20092;-80
2022/11/11 14:40:32;;;;;;;;;;;14.50;73.90;;;;;;4958867;29;19921;-80
2022/11/11 14:43:33;;;;;;;;;;;14.60;73.90;;;;;;4944847;29;20323;-80
2022/11/11 14:46:17;;;;;;;;;;;14.60;73.90;;;;;;4958883;29;19974;-81
2022/11/11 14:49:02;;;;;;;;;;;14.60;73.90;;;;;;4958426;29;20001;-81
2022/11/11 14:52:00;;;;;;;;;;;14.60;73.90;;;;;;4959783;29;19969;-80
2022/11/11 14:55:09;;;;;;;;;;;14.60;73.90;;;;;;4958159;29;19966;-81
2022/11/11 14:57:53;;;;;;;;;;;14.60;73.90;;;;;;4958384;29;20071;-79
2022/11/11 15:00:56;;;;;;;;;;;14.60;73.90;;;;;;4959485;29;20426;-81
2022/11/11 15:03:48;;;;;;;;;;;14.60;73.90;;;;;;4959495;29;19925;-81
2022/11/11 15:06:36;;;;;;;;;;;14.50;73.80;;;;;;4957932;29;20013;-81
2022/11/11 15:09:39;;;;;;;;;;;14.50;73.90;;;;;;4958322;29;19921;-82
2022/11/11 15:12:23;;;;;;;;;;;14.60;73.90;;;;;;4957992;29;19920;-83
2022/11/11 15:15:10;;;;;;;;;;;14.60;73.90;;;;;;4958951;29;19922;-83
2022/11/11 15:18:06;;;;;;;;;;;14.60;73.90;;;;;;4958257;29;19921;-81
2022/11/11 15:20:50;;;;;;;;;;;14.50;73.80;;;;;;4957671;29;19942;-81
2022/11/11 15:23:40;;;;;;;;;;;14.50;73.80;;;;;;4959182;29;19940;-80
2022/11/11 15:26:28;;;;;;;;;;;14.50;73.90;;;;;;4957667;29;20391;-80
2022/11/11 15:29:27;;;;;;;;;;;14.50;73.80;;;;;;4958920;29;20424;-81
2022/11/11 15:32:15;;;;;;;;;;;14.50;73.80;;;;;;4958743;29;19957;-81
2022/11/11 15:35:18;;;;;;;;;;;14.50;73.80;;;;;;4958135;28;19997;-80
2022/11/11 15:38:03;;;;;;;;;;;14.50;73.80;;;;;;4958411;29;19969;-82
2022/11/11 15:40:48;;;;;;;;;;;14.50;73.80;;;;;;4957337;29;20275;-81
2022/11/11 15:43:33;;;;;;;;;;;14.50;73.80;;;;;;4958839;29;19977;-81
2022/11/11 15:46:23;;;;;;;;;;;14.50;73.80;;;;;;4958105;29;19965;-81
2022/11/11 15:49:11;;;;;;;;;;;14.50;73.80;;;;;;4958594;29;19921;-80
2022/11/11 15:51:56;;;;;;;;;;;14.50;73.80;;;;;;4957736;29;20332;-80
2022/11/11 15:54:40;;;;;;;;;;;14.50;73.80;;;;;;4957678;29;20389;-80
2022/11/11 15:57:24;;;;;;;;;;;14.50;73.80;;;;;;4958029;29;20029;-81
2022/11/11 16:00:29;;;;;;;;;;;14.50;73.80;;;;;;4957453;29;20386;-80
2022/11/11 16:03:27;;;;;;;;;;;14.40;73.70;;;;;;4958033;29;20392;-82
2022/11/11 16:06:13;;;;;;;;;;;14.40;73.70;;;;;;4957335;29;20267;-80
2022/11/11 16:08:57;;;;;;;;;;;14.40;73.70;;;;;;4957243;29;19921;-79
2022/11/11 16:11:42;;;;;;;;;;;14.40;73.60;;;;;;4957331;29;19921;-80
2022/11/11 16:14:31;;;;;;;;;;;14.40;73.70;;;;;;4958154;29;19965;-80
2022/11/11 16:17:16;;;;;;;;;;;14.40;73.60;;;;;;4956702;29;20037;-79
2022/11/11 16:20:00;;;;;;;;;;;14.40;73.60;;;;;;4957875;29;20414;-80
2022/11/11 16:22:46;;;;;;;;;;;14.40;73.60;;;;;;4958022;29;20057;-79
2022/11/11 16:25:30;;;;;;;;;;;14.40;73.60;;;;;;4957124;29;20074;-82
2022/11/11 16:28:15;;;;;;;;;;;14.30;73.50;;;;;;4958133;29;20010;-81
2022/11/11 16:30:59;;;;;;;;;;;14.30;73.60;;;;;;4943173;29;20030;-80
2022/11/11 16:33:43;;;;;;;;;;;14.30;73.50;;;;;;4957770;29;20375;-80
2022/11/11 16:36:27;;;;;;;;;;;14.30;73.50;;;;;;4942664;29;19928;-82
2022/11/11 16:39:18;;;;;;;;;;;14.20;73.50;;;;;;4956729;29;19932;-81
2022/11/11 16:42:04;;;;;;;;;;;14.20;73.50;;;;;;4956400;29;19925;-80
2022/11/11 16:44:59;;;;;;;;;;;14.20;73.50;;;;;;4956042;29;20367;-81
2022/11/11 16:47:48;;;;;;;;;;;14.20;73.50;;;;;;4956294;28;19943;-81
2022/11/11 16:50:34;;;;;;;;;;;14.20;73.50;;;;;;4956452;29;19930;-80
2022/11/11 16:53:38;;;;;;;;;;;14.20;73.50;;;;;;4956555;29;19920;-84
2022/11/11 16:56:24;;;;;;;;;;;14.10;73.40;;;;;;4956667;29;19981;-83
2022/11/11 16:59:18;;;;;;;;;;;14.10;73.40;;;;;;4958363;29;19929;-84
2022/11/11 17:02:02;;;;;;;;;;;14.10;73.40;;;;;;4957384;29;19968;-81
2022/11/11 17:04:54;;;;;;;;;;;14.10;73.40;;;;;;4956108;29;19934;-80
2022/11/11 17:07:39;;;;;;;;;;;14.00;73.40;;;;;;4956089;29;19921;-82
2022/11/11 17:10:25;;;;;;;;;;;14.00;73.30;;;;;;4955738;29;19921;-80
2022/11/11 17:13:09;;;;;;;;;;;14.00;73.30;;;;;;4955969;29;19921;-82
2022/11/11 17:15:54;;;;;;;;;;;14.00;73.40;;;;;;4941768;29;19964;-81
2022/11/11 17:18:39;;;;;;;;;;;14.00;73.30;;;;;;4955819;29;19921;-81
2022/11/11 17:21:23;;;;;;;;;;;13.90;73.30;;;;;;4956568;29;19924;-81
2022/11/11 17:24:07;;;;;;;;;;;13.90;73.30;;;;;;4955521;29;19954;-85
2022/11/11 17:26:53;;;;;;;;;;;13.90;73.90;;;;;;4956270;29;20423;-82
2022/11/11 17:29:38;;;;;;;;;;;13.90;73.30;;;;;;4957240;29;19921;-84
2022/11/11 17:32:22;;;;;;;;;;;13.80;73.30;;;;;;4957360;29;20026;-83
2022/11/11 17:35:07;;;;;;;;;;;13.90;73.30;;;;;;4956348;29;20422;-82
2022/11/11 17:37:52;;;;;;;;;;;13.80;73.30;;;;;;4956807;29;20342;-84